KELK/ELK METAR and TAF weather

Enter ICAO airport designator
Station Type Date Time Source
KELK METAR 2019/12/11 15:15 UTC NOAA

KELK 111515Z AUTO 20010KT 10SM CLR 02/M05 A3040 RMK AO2 T00181052


Station Type Date Time Source
KELK Decoded METAR 2019/12/11 15:15 UTC NOAA

Station name not available
Dec 11, 2019 - 10:15 AM EST / 2019.12.11 1515 UTC
Wind: from the SSW (200 degrees) at 12 MPH (10 KT):0
Visibility: 10 mile(s):0
Sky conditions: clear
Temperature: 35.2 F (1.8 C)
Dew Point: 22.6 F (-5.2 C)
Relative Humidity: 59%
Pressure (altimeter): 30.4 in. Hg (1029 hPa)
ob: KELK 111515Z AUTO 20010KT 10SM CLR 02/M05 A3040 RMK AO2 T00181052
cycle: 15

Station Type Date Time Source
KELK TAF UTC NOAA

Error!

Example: see airport list